createdAt,value
2023-03-21T00:00:42.057Z,88.50
2023-03-21T00:01:56.676Z,77.20
2023-03-21T00:02:59.528Z,86.60
2023-03-21T00:04:03.296Z,90.20
2023-03-21T00:05:15.473Z,76.30
2023-03-21T00:06:19.132Z,91.80
2023-03-21T00:07:22.239Z,91.30
2023-03-21T00:08:26.227Z,89.50
2023-03-21T00:09:29.060Z,87.60
2023-03-21T00:10:40.282Z,86.10
2023-03-21T00:11:48.304Z,81.40
2023-03-21T00:12:55.496Z,83.60
2023-03-21T00:14:02.458Z,84.40
2023-03-21T00:15:10.104Z,78.70
2023-03-21T00:16:17.831Z,85.00
2023-03-21T00:17:24.632Z,91.60
2023-03-21T00:18:27.348Z,99.50
2023-03-21T00:19:30.519Z,97.50
2023-03-21T00:20:37.889Z,95.00
2023-03-21T00:21:59.561Z,99.30
2023-03-21T00:23:04.979Z,98.20
2023-03-21T00:24:08.090Z,90.50
2023-03-21T00:25:11.087Z,87.00
2023-03-21T00:26:15.524Z,97.30
2023-03-21T00:27:42.900Z,93.70
2023-03-21T00:28:43.751Z,87.00
2023-03-21T00:29:49.118Z,92.40
2023-03-21T00:31:00.748Z,94.40
2023-03-21T00:32:03.603Z,90.20
2023-03-21T00:33:21.726Z,95.30
2023-03-21T00:34:36.470Z,93.10
2023-03-21T00:35:58.763Z,96.60
2023-03-21T00:37:07.327Z,89.00
2023-03-21T00:38:11.229Z,89.40
2023-03-21T00:39:14.251Z,93.70
2023-03-21T00:40:26.593Z,93.50
2023-03-21T00:41:42.004Z,92.10
2023-03-21T00:42:45.840Z,102.80
2023-03-21T00:43:48.606Z,99.90
2023-03-21T00:44:51.921Z,102.00
2023-03-21T00:45:54.727Z,111.20
2023-03-21T00:47:06.997Z,107.40
2023-03-21T00:48:10.884Z,104.80
2023-03-21T00:49:13.715Z,109.20
2023-03-21T00:50:18.153Z,120.80
2023-03-21T00:51:26.346Z,104.40
2023-03-21T00:52:40.231Z,114.60
2023-03-21T00:53:43.848Z,129.20
2023-03-21T00:54:46.579Z,125.60
2023-03-21T00:55:50.003Z,119.10
2023-03-21T00:56:53.178Z,133.60
2023-03-21T00:58:01.844Z,123.80
2023-03-21T00:59:05.336Z,124.50
2023-03-21T01:00:10.769Z,141.90
2023-03-21T01:01:13.715Z,142.90
2023-03-21T01:02:23.316Z,127.30
2023-03-21T01:03:26.744Z,116.30
2023-03-21T01:04:29.644Z,118.00
2023-03-21T01:05:54.448Z,129.70
2023-03-21T01:06:57.390Z,115.20
2023-03-21T01:08:00.392Z,112.60
2023-03-21T01:09:03.870Z,114.20
2023-03-21T01:10:07.293Z,103.00
2023-03-21T01:11:14.438Z,118.60
2023-03-21T01:12:17.261Z,95.10
2023-03-21T01:13:22.745Z,96.50
2023-03-21T01:14:25.950Z,99.20
2023-03-21T01:15:29.743Z,100.10
2023-03-21T01:16:32.718Z,96.70
2023-03-21T01:17:35.750Z,97.20
2023-03-21T01:18:40.845Z,97.00
2023-03-21T01:19:51.721Z,91.30
2023-03-21T01:20:58.021Z,89.90
2023-03-21T01:22:01.068Z,81.30
2023-03-21T01:23:03.802Z,83.90
2023-03-21T01:24:07.232Z,87.30
2023-03-21T01:25:21.874Z,88.60
2023-03-21T01:26:25.832Z,81.70
2023-03-21T01:27:28.684Z,86.80
2023-03-21T01:28:32.107Z,86.70
2023-03-21T01:29:34.927Z,89.30
2023-03-21T01:30:41.929Z,100.60
2023-03-21T01:31:45.072Z,93.10
2023-03-21T01:32:48.065Z,113.90
2023-03-21T01:33:51.500Z,116.10
2023-03-21T01:34:54.275Z,116.80
2023-03-21T01:36:10.350Z,110.70
2023-03-21T01:37:18.004Z,105.40
2023-03-21T01:38:23.863Z,98.60
2023-03-21T01:39:26.596Z,79.90
2023-03-21T01:40:30.708Z,82.40
2023-03-21T01:41:46.792Z,81.90
2023-03-21T01:42:53.936Z,77.70
2023-03-21T01:43:57.831Z,84.30
2023-03-21T01:45:46.211Z,77.30
2023-03-21T01:47:07.316Z,81.60
2023-03-21T01:48:23.296Z,89.40
2023-03-21T01:49:36.024Z,124.10
2023-03-21T01:51:05.660Z,119.90
2023-03-21T01:52:29.761Z,117.20
2023-03-21T01:53:40.582Z,104.20
2023-03-21T01:54:46.957Z,108.50
2023-03-21T01:55:53.176Z,100.70
2023-03-21T01:57:22.614Z,94.90
2023-03-21T01:58:30.226Z,89.10
2023-03-21T01:59:43.328Z,94.80
2023-03-21T02:01:02.894Z,85.10
2023-03-21T02:02:17.955Z,84.30
2023-03-21T02:03:38.456Z,78.90
2023-03-21T02:05:03.846Z,75.40
2023-03-21T02:06:13.704Z,76.40
2023-03-21T02:07:25.704Z,72.90
2023-03-21T02:08:39.318Z,69.80
2023-03-21T02:09:50.252Z,70.80
2023-03-21T02:10:56.903Z,71.50
2023-03-21T02:12:09.270Z,78.00
2023-03-21T02:13:12.302Z,81.00
2023-03-21T02:14:28.338Z,75.90
2023-03-21T02:15:38.317Z,76.00
2023-03-21T02:17:17.660Z,84.20
2023-03-21T02:18:26.743Z,77.80
2023-03-21T02:19:51.021Z,80.90
2023-03-21T02:21:11.418Z,71.20
2023-03-21T02:22:49.504Z,76.60
2023-03-21T02:24:23.683Z,69.20
2023-03-21T02:25:29.119Z,71.70
2023-03-21T02:27:04.833Z,84.10
2023-03-21T02:29:30.547Z,70.40
2023-03-21T02:31:07.531Z,77.30
2023-03-21T02:32:36.564Z,77.60
2023-03-21T02:33:58.732Z,83.60
2023-03-21T02:35:14.168Z,84.80
2023-03-21T02:36:41.704Z,93.10
2023-03-21T02:38:00.747Z,82.00
2023-03-21T02:39:15.824Z,91.00
2023-03-21T02:40:27.745Z,97.30
2023-03-21T02:41:49.023Z,90.90
2023-03-21T02:43:23.060Z,98.20
2023-03-21T02:44:41.316Z,96.00
2023-03-21T02:45:52.311Z,97.00
2023-03-21T02:47:06.354Z,102.80
2023-03-21T02:48:29.142Z,111.30
2023-03-21T02:49:44.945Z,115.50
2023-03-21T02:50:53.173Z,114.30
2023-03-21T02:52:05.293Z,126.80
2023-03-21T02:53:21.726Z,154.60
2023-03-21T02:54:41.830Z,148.80
2023-03-21T02:55:52.974Z,151.30
2023-03-21T02:56:59.327Z,161.60
2023-03-21T02:58:12.358Z,173.50
2023-03-21T02:59:21.263Z,165.70
2023-03-21T03:00:27.720Z,149.90
2023-03-21T03:01:30.641Z,155.10
2023-03-21T03:02:33.849Z,147.80
2023-03-21T03:03:39.498Z,151.70
2023-03-21T03:04:42.411Z,144.60
2023-03-21T03:05:50.524Z,137.50
2023-03-21T03:07:01.226Z,146.40
2023-03-21T03:08:10.752Z,140.30
2023-03-21T03:09:19.437Z,133.80
2023-03-21T03:10:26.598Z,117.30
2023-03-21T03:11:38.313Z,116.20
2023-03-21T03:13:23.728Z,99.00
2023-03-21T03:14:56.412Z,90.70
2023-03-21T03:16:28.625Z,88.60
2023-03-21T03:18:10.350Z,76.70
2023-03-21T03:19:26.036Z,81.50
2023-03-21T03:20:59.224Z,78.30
2023-03-21T03:22:10.755Z,85.40
2023-03-21T03:23:24.333Z,83.20
2023-03-21T03:25:18.318Z,81.60
2023-03-21T03:26:38.527Z,84.40
2023-03-21T03:27:44.911Z,83.00
2023-03-21T03:28:53.909Z,85.30
2023-03-21T03:30:01.154Z,85.50
2023-03-21T03:33:56.732Z,72.40
2023-03-21T03:35:00.499Z,72.40
2023-03-21T03:36:12.803Z,72.80
2023-03-21T03:37:26.371Z,71.50
2023-03-21T03:38:30.125Z,73.80
2023-03-21T03:39:41.486Z,72.80
2023-03-21T03:40:48.930Z,69.80
2023-03-21T03:42:27.180Z,71.00
2023-03-21T03:43:42.149Z,78.30
2023-03-21T03:44:45.773Z,77.10
2023-03-21T03:45:54.754Z,73.10
2023-03-21T03:47:03.832Z,83.50
2023-03-21T03:48:17.507Z,73.00
2023-03-21T03:49:24.029Z,71.10
2023-03-21T03:50:32.160Z,73.70
2023-03-21T03:51:54.566Z,78.00
2023-03-21T03:53:18.642Z,73.50
2023-03-21T03:54:28.552Z,78.00
2023-03-21T03:55:34.620Z,77.10
2023-03-21T03:56:47.001Z,83.20
2023-03-21T03:57:50.001Z,75.20
2023-03-21T03:58:53.117Z,73.80
2023-03-21T03:59:59.763Z,73.70
2023-03-21T04:01:19.682Z,66.40
2023-03-21T04:02:22.520Z,69.00
2023-03-21T04:03:25.798Z,68.90
2023-03-21T04:04:29.771Z,67.60
2023-03-21T04:05:33.427Z,66.90
2023-03-21T04:06:36.183Z,63.70
2023-03-21T04:07:41.409Z,66.10
2023-03-21T04:08:44.715Z,56.20
2023-03-21T04:09:47.916Z,59.40
2023-03-21T04:10:53.996Z,59.10
2023-03-21T04:11:57.748Z,57.30
2023-03-21T04:13:00.714Z,66.90
2023-03-21T04:14:30.642Z,77.50
2023-03-21T04:15:40.522Z,87.40
2023-03-21T04:16:47.653Z,90.90
2023-03-21T04:17:50.730Z,97.20
2023-03-21T04:18:53.953Z,88.90
2023-03-21T04:20:05.455Z,96.70
2023-03-21T04:21:13.267Z,98.50
2023-03-21T04:22:17.169Z,90.30
2023-03-21T04:23:20.215Z,95.90
2023-03-21T04:24:23.131Z,91.10
2023-03-21T04:25:33.907Z,91.30
2023-03-21T04:26:38.222Z,83.80
2023-03-21T04:28:10.526Z,92.90
2023-03-21T04:29:35.944Z,96.20
2023-03-21T04:31:03.543Z,91.00
2023-03-21T04:32:19.907Z,93.80
2023-03-21T04:33:29.056Z,104.70
2023-03-21T04:34:32.435Z,94.00
2023-03-21T04:35:37.664Z,89.80
2023-03-21T04:36:47.340Z,89.90
2023-03-21T04:38:54.880Z,81.50
2023-03-21T04:39:57.652Z,88.10
2023-03-21T04:41:01.297Z,98.40
2023-03-21T04:42:05.785Z,82.70
2023-03-21T04:43:08.835Z,84.40
2023-03-21T04:44:16.646Z,87.30
2023-03-21T04:45:19.668Z,74.90
2023-03-21T04:46:23.697Z,68.80
2023-03-21T04:47:27.457Z,69.10
2023-03-21T04:48:31.284Z,74.80
2023-03-21T04:49:35.458Z,77.80
2023-03-21T04:50:39.215Z,67.50
2023-03-21T04:51:44.042Z,66.30
2023-03-21T04:52:47.563Z,72.80
2023-03-21T04:53:52.623Z,70.70
2023-03-21T04:54:55.654Z,71.50
2023-03-21T04:55:59.049Z,67.50
2023-03-21T04:57:01.829Z,68.30
2023-03-21T04:58:05.252Z,80.00
2023-03-21T04:59:14.077Z,71.30
2023-03-21T05:00:17.260Z,73.20
2023-03-21T05:01:20.909Z,70.20
2023-03-21T05:02:24.041Z,73.20
2023-03-21T05:03:28.837Z,73.30
2023-03-21T05:04:31.931Z,72.20
2023-03-21T05:05:38.333Z,74.10
2023-03-21T05:06:44.737Z,70.00
2023-03-21T05:07:47.582Z,75.40
2023-03-21T05:08:50.439Z,76.30
2023-03-21T05:09:53.226Z,75.60
2023-03-21T05:10:56.001Z,86.70
2023-03-21T05:12:02.030Z,83.50
2023-03-21T05:13:06.790Z,83.90
2023-03-21T05:14:14.231Z,79.90
2023-03-21T05:15:17.140Z,81.40
2023-03-21T05:16:20.007Z,80.00
2023-03-21T05:17:28.449Z,73.00
2023-03-21T05:18:34.940Z,75.60
2023-03-21T05:19:42.681Z,76.40
2023-03-21T05:20:47.187Z,67.90
2023-03-21T05:21:50.555Z,70.70
2023-03-21T05:22:56.482Z,69.90
2023-03-21T05:24:03.640Z,70.80
2023-03-21T05:25:08.996Z,72.10
2023-03-21T05:26:30.390Z,67.10
2023-03-21T05:27:45.370Z,73.10
2023-03-21T05:28:50.241Z,73.50
2023-03-21T05:29:53.018Z,74.00
2023-03-21T05:30:56.024Z,71.40
2023-03-21T05:32:00.698Z,65.10
2023-03-21T05:33:04.004Z,68.90
2023-03-21T05:34:07.101Z,70.30
2023-03-21T05:35:10.833Z,63.60
2023-03-21T05:36:14.849Z,63.40
2023-03-21T05:37:17.671Z,66.00
2023-03-21T05:38:23.462Z,68.30
2023-03-21T05:39:27.365Z,84.20
2023-03-21T05:40:39.014Z,84.30
2023-03-21T05:41:42.502Z,101.70
2023-03-21T05:42:47.120Z,93.50
2023-03-21T05:44:00.468Z,104.40
2023-03-21T05:45:04.109Z,102.40
2023-03-21T05:46:08.423Z,100.40
2023-03-21T05:47:16.219Z,108.30
2023-03-21T05:49:36.556Z,94.40
2023-03-21T05:50:39.491Z,78.30
2023-03-21T05:51:47.310Z,78.20
2023-03-21T05:52:50.218Z,73.80
2023-03-21T05:53:53.116Z,69.20
2023-03-21T05:54:58.326Z,78.80
2023-03-21T05:56:02.708Z,69.50
2023-03-21T05:57:28.879Z,82.30
2023-03-21T05:58:34.523Z,80.50
2023-03-21T05:59:37.432Z,88.70
2023-03-21T06:00:40.701Z,91.90
2023-03-21T06:01:57.323Z,94.50
2023-03-21T06:03:00.726Z,96.20
2023-03-21T06:04:17.818Z,87.40
2023-03-21T06:05:20.714Z,87.90
2023-03-21T06:06:45.286Z,91.80
2023-03-21T06:07:49.387Z,91.10
2023-03-21T06:08:52.268Z,91.60
2023-03-21T06:09:55.261Z,86.50
2023-03-21T06:10:58.068Z,88.60
2023-03-21T06:12:01.231Z,93.50
2023-03-21T06:13:08.345Z,85.60
2023-03-21T06:14:11.142Z,92.10
2023-03-21T06:15:14.738Z,94.60
2023-03-21T06:16:29.036Z,92.50
2023-03-21T06:17:34.947Z,90.30
2023-03-21T06:18:40.280Z,90.60
2023-03-21T06:19:54.884Z,90.90
2023-03-21T06:21:06.826Z,93.00
2023-03-21T06:22:09.662Z,94.80
2023-03-21T06:23:14.351Z,90.90
2023-03-21T06:24:17.893Z,98.70
2023-03-21T06:25:21.463Z,99.40
2023-03-21T06:26:24.340Z,91.10
2023-03-21T06:27:27.680Z,95.50
2023-03-21T06:28:31.805Z,87.00
2023-03-21T06:29:34.941Z,93.60
2023-03-21T06:30:37.934Z,93.30
2023-03-21T06:32:01.314Z,94.90
2023-03-21T06:33:04.269Z,101.90
2023-03-21T06:34:07.198Z,90.40
2023-03-21T06:35:10.254Z,87.60
2023-03-21T06:36:13.425Z,92.70
2023-03-21T06:37:16.359Z,90.60
2023-03-21T06:38:19.450Z,87.20
2023-03-21T06:39:23.440Z,98.00
2023-03-21T06:40:26.370Z,90.70
2023-03-21T06:41:29.982Z,89.70
2023-03-21T06:42:36.472Z,82.50
2023-03-21T06:43:45.315Z,90.70
2023-03-21T06:44:48.447Z,83.20
2023-03-21T06:45:52.002Z,85.50
2023-03-21T06:46:55.751Z,87.20
2023-03-21T06:47:58.546Z,82.40
2023-03-21T06:49:18.073Z,92.30
2023-03-21T06:50:21.119Z,80.70
2023-03-21T06:51:24.000Z,84.90
2023-03-21T06:52:42.621Z,80.60
2023-03-21T06:53:45.856Z,77.60
2023-03-21T06:55:02.345Z,75.50
2023-03-21T06:56:05.870Z,75.30
2023-03-21T06:57:08.966Z,78.10
2023-03-21T06:58:11.793Z,79.30
2023-03-21T06:59:14.715Z,74.10
2023-03-21T07:00:30.802Z,76.10
2023-03-21T07:01:34.884Z,76.20
2023-03-21T07:02:42.387Z,67.40
2023-03-21T07:03:49.588Z,71.70
2023-03-21T07:04:55.267Z,78.60
2023-03-21T07:06:07.036Z,71.60
2023-03-21T07:07:10.405Z,81.70
2023-03-21T07:08:14.308Z,77.70
2023-03-21T07:09:18.301Z,68.00
2023-03-21T07:10:21.588Z,71.50
2023-03-21T07:11:42.658Z,68.40
2023-03-21T07:12:45.429Z,65.50
2023-03-21T07:14:00.678Z,62.70
2023-03-21T07:15:04.661Z,63.30
2023-03-21T07:16:09.099Z,67.20
2023-03-21T07:17:11.945Z,61.40
2023-03-21T07:18:14.750Z,68.10
2023-03-21T07:19:18.885Z,64.90
2023-03-21T07:20:21.654Z,61.90
2023-03-21T07:21:24.966Z,59.80
2023-03-21T07:22:27.802Z,65.60
2023-03-21T07:23:30.566Z,63.40
2023-03-21T07:24:33.448Z,68.50
2023-03-21T07:25:36.522Z,67.00
2023-03-21T07:26:39.535Z,60.50
2023-03-21T07:27:42.345Z,62.40
2023-03-21T07:28:45.877Z,60.80
2023-03-21T07:29:50.466Z,61.70
2023-03-21T07:30:56.331Z,61.20
2023-03-21T07:31:59.197Z,69.00
2023-03-21T07:33:02.158Z,60.50
2023-03-21T07:34:05.070Z,66.80
2023-03-21T07:35:11.964Z,63.60
2023-03-21T07:36:16.305Z,58.50
2023-03-21T07:37:19.202Z,69.40
2023-03-21T07:38:22.062Z,61.20
2023-03-21T07:39:26.110Z,60.20
2023-03-21T07:40:29.469Z,60.90
2023-03-21T07:41:32.542Z,62.30
2023-03-21T07:42:49.182Z,60.70
2023-03-21T07:43:54.670Z,61.90
2023-03-21T07:44:57.637Z,61.50
2023-03-21T07:46:00.869Z,58.60
2023-03-21T07:47:04.888Z,62.60
2023-03-21T07:48:08.774Z,62.30
2023-03-21T07:49:11.516Z,53.10
2023-03-21T07:50:14.756Z,56.20
2023-03-21T07:51:17.501Z,48.40
2023-03-21T07:52:20.344Z,54.90
2023-03-21T07:53:23.674Z,52.30
2023-03-21T07:54:28.620Z,53.00
2023-03-21T07:55:35.018Z,50.10
2023-03-21T07:56:38.027Z,54.50
2023-03-21T07:57:41.077Z,52.90
2023-03-21T07:58:43.874Z,58.10
2023-03-21T07:59:46.807Z,51.30
2023-03-21T08:00:50.065Z,58.70
2023-03-21T08:01:53.201Z,58.10
2023-03-21T08:02:59.037Z,59.70
2023-03-21T08:04:01.992Z,59.20
2023-03-21T08:05:05.122Z,63.30
2023-03-21T08:06:08.431Z,59.20
2023-03-21T08:07:11.843Z,54.80
2023-03-21T08:08:14.879Z,52.00
2023-03-21T08:09:17.748Z,54.20
2023-03-21T08:10:20.783Z,47.90
2023-03-21T08:11:24.703Z,45.00
2023-03-21T08:12:27.620Z,49.60
2023-03-21T08:13:30.389Z,46.10
2023-03-21T08:14:33.334Z,47.10
2023-03-21T08:15:37.612Z,47.80
2023-03-21T08:16:40.612Z,44.50
2023-03-21T08:17:45.626Z,48.60
2023-03-21T08:18:48.391Z,47.80
2023-03-21T08:19:51.442Z,40.10
2023-03-21T08:20:57.697Z,46.50
2023-03-21T08:22:01.238Z,41.30
2023-03-21T08:23:04.433Z,40.70
2023-03-21T08:24:07.261Z,39.30
2023-03-21T08:25:13.900Z,41.40
2023-03-21T08:26:18.547Z,46.90
2023-03-21T08:27:21.398Z,44.50
2023-03-21T08:28:24.717Z,36.50
2023-03-21T08:29:27.877Z,45.70
2023-03-21T08:30:30.911Z,51.80
2023-03-21T08:31:33.714Z,46.90
2023-03-21T08:32:38.688Z,42.30
2023-03-21T08:33:41.483Z,42.20
2023-03-21T08:34:44.274Z,47.60
2023-03-21T08:35:47.364Z,43.50
2023-03-21T08:36:50.229Z,40.80
2023-03-21T08:37:53.575Z,41.80
2023-03-21T08:39:04.808Z,44.00
2023-03-21T08:40:14.354Z,42.90
2023-03-21T08:41:17.130Z,47.40
2023-03-21T08:42:21.481Z,46.10
2023-03-21T08:43:24.233Z,45.50
2023-03-21T08:44:27.071Z,44.40
2023-03-21T08:45:30.582Z,44.50
2023-03-21T08:46:33.814Z,43.20
2023-03-21T08:47:36.838Z,36.20
2023-03-21T08:48:39.760Z,41.60
2023-03-21T08:49:45.685Z,42.30
2023-03-21T08:50:48.661Z,41.90
2023-03-21T08:51:55.830Z,42.20
2023-03-21T08:52:58.672Z,40.10
2023-03-21T08:54:01.620Z,39.00
2023-03-21T08:55:05.525Z,40.40
2023-03-21T08:56:08.758Z,34.40
2023-03-21T08:57:11.530Z,41.00
2023-03-21T08:58:14.282Z,43.10
2023-03-21T08:59:17.230Z,33.90
2023-03-21T09:00:22.011Z,33.90
2023-03-21T09:01:24.817Z,34.40
2023-03-21T09:02:27.761Z,35.70
2023-03-21T09:03:30.596Z,39.50
2023-03-21T09:04:33.824Z,38.00
2023-03-21T09:05:36.977Z,33.60
2023-03-21T09:06:47.021Z,35.50
2023-03-21T09:07:49.892Z,38.50
2023-03-21T09:08:53.504Z,36.60
2023-03-21T09:10:15.148Z,38.50
2023-03-21T09:11:19.624Z,35.80
2023-03-21T09:12:22.364Z,39.40
2023-03-21T09:13:25.225Z,39.10
2023-03-21T09:14:28.982Z,38.60
2023-03-21T09:15:33.248Z,31.40
2023-03-21T09:16:36.064Z,35.20
2023-03-21T09:17:43.911Z,38.80
2023-03-21T09:18:50.612Z,35.60
2023-03-21T09:19:53.401Z,34.80
2023-03-21T09:20:56.569Z,30.10
2023-03-21T09:21:59.754Z,26.90
2023-03-21T09:23:03.239Z,26.90
2023-03-21T09:24:06.858Z,25.80
2023-03-21T09:25:11.412Z,22.50
2023-03-21T09:26:14.625Z,24.40
2023-03-21T09:27:25.480Z,24.80
2023-03-21T09:28:28.463Z,24.80
2023-03-21T09:29:32.563Z,31.10
2023-03-21T09:30:36.818Z,29.90
2023-03-21T09:31:40.288Z,30.90
2023-03-21T09:32:47.413Z,29.00
2023-03-21T09:33:51.618Z,25.40
2023-03-21T09:34:55.798Z,29.90
2023-03-21T09:36:00.529Z,29.50
2023-03-21T09:37:03.513Z,29.40
2023-03-21T09:38:06.384Z,26.50
2023-03-21T09:39:09.209Z,25.50
2023-03-21T09:40:21.367Z,24.20
2023-03-21T09:41:44.175Z,26.50
2023-03-21T09:43:35.581Z,24.50
2023-03-21T09:44:59.022Z,29.60
2023-03-21T09:46:13.932Z,24.90
2023-03-21T09:47:29.401Z,26.50
2023-03-21T09:48:50.633Z,24.20
2023-03-21T09:50:14.129Z,25.00
2023-03-21T09:51:19.492Z,27.80
2023-03-21T09:52:32.714Z,25.00
2023-03-21T09:53:39.867Z,25.30
2023-03-21T09:54:45.778Z,28.50
2023-03-21T09:55:49.332Z,25.30
2023-03-21T09:56:56.378Z,24.40
2023-03-21T09:58:24.551Z,25.20
2023-03-21T09:59:40.181Z,28.90
2023-03-21T10:00:49.467Z,28.90
2023-03-21T10:01:52.498Z,29.60
2023-03-21T10:02:59.942Z,28.70
2023-03-21T10:04:06.663Z,29.70
2023-03-21T10:05:17.737Z,30.00
2023-03-21T10:06:28.686Z,30.20
2023-03-21T10:07:37.792Z,27.10
2023-03-21T10:08:43.097Z,26.70
2023-03-21T10:09:47.277Z,29.30
2023-03-21T10:10:53.551Z,24.70
2023-03-21T10:12:08.373Z,28.50
2023-03-21T10:13:17.391Z,29.90
2023-03-21T10:14:29.843Z,34.90
2023-03-21T10:15:32.698Z,29.90
2023-03-21T10:16:41.482Z,33.30
2023-03-21T10:17:52.114Z,33.20
2023-03-21T10:18:56.189Z,37.20
2023-03-21T10:20:12.242Z,31.60
2023-03-21T10:21:51.282Z,22.90
2023-03-21T10:22:49.445Z,26.20
2023-03-21T10:23:54.869Z,25.00
2023-03-21T10:24:57.707Z,26.40
2023-03-21T10:26:08.037Z,25.60
2023-03-21T10:27:13.310Z,28.30
2023-03-21T10:28:25.941Z,24.50
2023-03-21T10:29:43.707Z,28.20
2023-03-21T10:30:51.344Z,29.20
2023-03-21T10:31:55.541Z,26.00
2023-03-21T10:33:05.087Z,27.90
2023-03-21T10:35:19.569Z,34.90
2023-03-21T10:36:25.881Z,29.60
2023-03-21T10:37:28.693Z,29.70
2023-03-21T10:38:32.110Z,33.20
2023-03-21T10:39:41.245Z,29.00
2023-03-21T10:40:44.722Z,28.90
2023-03-21T10:41:47.487Z,26.90
2023-03-21T10:42:50.334Z,25.50
2023-03-21T10:44:14.737Z,25.30
2023-03-21T10:45:20.038Z,26.20
2023-03-21T10:46:27.421Z,27.70
2023-03-21T10:47:34.370Z,20.50
2023-03-21T10:48:40.059Z,21.70
2023-03-21T10:50:06.237Z,23.80
2023-03-21T10:51:09.421Z,25.50
2023-03-21T10:52:15.472Z,22.40
2023-03-21T10:53:21.777Z,27.60
2023-03-21T10:54:29.685Z,25.20
2023-03-21T10:55:40.942Z,25.00
2023-03-21T10:56:52.501Z,27.70
2023-03-21T10:57:58.938Z,25.40
2023-03-21T10:59:03.014Z,26.10
2023-03-21T11:00:17.087Z,27.80
2023-03-21T11:01:30.650Z,30.80
2023-03-21T11:02:36.895Z,26.10
2023-03-21T11:03:46.875Z,26.00
2023-03-21T11:04:50.245Z,32.70
2023-03-21T11:05:57.301Z,25.50
2023-03-21T11:07:07.542Z,24.90
2023-03-21T11:08:17.513Z,18.80
2023-03-21T11:09:24.946Z,19.40
2023-03-21T11:10:38.158Z,18.50
2023-03-21T11:11:50.838Z,19.00
2023-03-21T11:12:57.120Z,21.90
2023-03-21T11:14:07.074Z,15.50
2023-03-21T11:15:32.769Z,16.20
2023-03-21T11:16:41.849Z,15.60
2023-03-21T11:17:45.456Z,15.10
2023-03-21T11:18:56.672Z,11.90
2023-03-21T11:20:10.890Z,12.40
2023-03-21T11:21:14.854Z,13.10
2023-03-21T11:22:20.543Z,13.20
2023-03-21T11:23:29.939Z,12.90
2023-03-21T11:24:34.931Z,13.30
2023-03-21T11:25:41.584Z,9.90
2023-03-21T11:26:48.098Z,10.90
2023-03-21T11:27:54.916Z,9.40
2023-03-21T11:28:58.274Z,8.70
2023-03-21T11:30:05.258Z,10.80
2023-03-21T11:31:09.481Z,7.80
2023-03-21T11:32:42.484Z,9.20
2023-03-21T11:33:53.867Z,8.30
2023-03-21T11:35:21.980Z,7.50
2023-03-21T11:36:33.882Z,7.70
2023-03-21T11:37:36.663Z,9.00
2023-03-21T11:38:39.781Z,8.60
2023-03-21T11:39:45.422Z,10.50
2023-03-21T11:40:58.275Z,12.60
2023-03-21T11:42:01.194Z,14.50
2023-03-21T11:43:19.002Z,13.90
2023-03-21T11:44:43.020Z,10.50
2023-03-21T11:46:09.889Z,13.40
2023-03-21T11:47:12.864Z,17.10
2023-03-21T11:48:15.818Z,16.90
2023-03-21T11:49:18.717Z,17.80
2023-03-21T11:50:27.329Z,15.70
2023-03-21T11:51:57.960Z,12.30
2023-03-21T11:53:19.887Z,14.50
2023-03-21T11:54:41.854Z,12.20
2023-03-21T11:55:53.654Z,12.30
2023-03-21T11:57:13.750Z,14.50
2023-03-21T11:58:38.532Z,12.80
2023-03-21T12:00:10.955Z,15.80
2023-03-21T12:01:26.493Z,12.20
2023-03-21T12:02:55.814Z,11.60
2023-03-21T12:05:26.937Z,11.20
2023-03-21T12:06:49.438Z,12.30
2023-03-21T12:07:58.711Z,12.90
2023-03-21T12:09:10.486Z,8.60
2023-03-21T12:10:31.644Z,8.10
2023-03-21T12:12:03.092Z,8.10
2023-03-21T12:13:27.268Z,7.70
2023-03-21T12:14:58.349Z,7.60
2023-03-21T12:16:16.806Z,6.50
2023-03-21T12:17:54.585Z,7.10
2023-03-21T12:19:20.996Z,8.80
2023-03-21T12:20:30.298Z,5.60
2023-03-21T12:21:55.038Z,6.10
2023-03-21T12:23:28.664Z,7.70
2023-03-21T12:25:10.980Z,5.70
2023-03-21T12:26:30.680Z,6.60
2023-03-21T12:27:52.889Z,7.20
2023-03-21T12:29:14.368Z,6.00
2023-03-21T12:30:39.337Z,5.90
2023-03-21T12:31:57.017Z,6.40
2023-03-21T12:33:24.724Z,6.40
2023-03-21T12:34:45.604Z,5.50
2023-03-21T12:35:54.455Z,5.90
2023-03-21T12:37:17.577Z,7.00
2023-03-21T12:38:30.551Z,6.40
2023-03-21T12:39:40.002Z,6.20
2023-03-21T12:41:57.501Z,6.50
2023-03-21T12:43:12.315Z,7.50
2023-03-21T12:44:17.555Z,6.80
2023-03-21T12:45:45.802Z,6.30
2023-03-21T12:46:55.957Z,6.30
2023-03-21T12:49:44.146Z,7.00
2023-03-21T12:50:49.978Z,6.40
2023-03-21T12:52:01.413Z,6.80
2023-03-21T12:53:24.924Z,6.70
2023-03-21T12:54:39.004Z,7.10
2023-03-21T12:55:42.257Z,6.60
2023-03-21T12:57:07.493Z,5.60
2023-03-21T12:58:18.847Z,6.50
2023-03-21T12:59:43.449Z,7.50
2023-03-21T13:00:58.637Z,10.30
2023-03-21T13:02:16.854Z,10.70
2023-03-21T13:03:52.368Z,10.70
2023-03-21T13:05:10.381Z,13.50
2023-03-21T13:06:15.613Z,11.30
2023-03-21T13:07:22.795Z,13.30
2023-03-21T13:08:42.024Z,13.20
2023-03-21T13:09:44.826Z,11.30
2023-03-21T13:10:48.229Z,10.90
2023-03-21T13:11:54.433Z,9.10
2023-03-21T13:13:13.620Z,9.60
2023-03-21T13:14:25.141Z,9.60
2023-03-21T13:16:05.517Z,10.20
2023-03-21T13:17:23.410Z,10.30
2023-03-21T13:18:45.338Z,8.90
2023-03-21T13:19:58.712Z,9.30
2023-03-21T13:21:41.423Z,8.10
2023-03-21T13:22:44.405Z,8.50
2023-03-21T13:24:04.660Z,8.90
2023-03-21T13:25:19.329Z,8.30
2023-03-21T13:26:41.645Z,8.10
2023-03-21T13:27:51.661Z,12.20
2023-03-21T13:28:54.558Z,8.60
2023-03-21T13:30:18.309Z,9.10
2023-03-21T13:31:25.282Z,7.20
2023-03-21T13:32:35.903Z,8.40
2023-03-21T13:33:44.647Z,8.30
2023-03-21T13:34:55.543Z,9.90
2023-03-21T13:36:07.345Z,9.00
2023-03-21T13:37:18.273Z,8.20
2023-03-21T13:38:25.542Z,9.10
2023-03-21T13:39:29.739Z,11.20
2023-03-21T13:40:47.778Z,8.90
2023-03-21T13:41:51.155Z,10.90
2023-03-21T13:42:59.716Z,9.10
2023-03-21T13:44:02.393Z,10.40
2023-03-21T13:45:09.512Z,10.80
2023-03-21T13:46:15.948Z,11.10
2023-03-21T13:48:08.151Z,10.50
2023-03-21T13:49:11.148Z,11.20
2023-03-21T13:50:20.012Z,10.80
2023-03-21T13:51:36.281Z,9.50
2023-03-21T13:52:39.095Z,10.00
2023-03-21T13:53:45.026Z,8.40
2023-03-21T13:55:16.853Z,9.80
2023-03-21T13:56:22.593Z,8.20
2023-03-21T13:57:30.467Z,9.90
2023-03-21T13:58:51.162Z,8.00
2023-03-21T14:00:21.978Z,10.90
2023-03-21T14:01:30.625Z,8.10
2023-03-21T14:02:34.599Z,8.70
2023-03-21T14:03:39.520Z,6.10
2023-03-21T14:04:54.195Z,6.50
2023-03-21T14:06:09.046Z,6.20
2023-03-21T14:07:20.192Z,5.60
2023-03-21T14:08:36.908Z,5.10
2023-03-21T14:09:48.962Z,4.90
2023-03-21T14:10:59.829Z,5.50
2023-03-21T14:12:07.793Z,4.70
2023-03-21T14:13:19.501Z,4.70
2023-03-21T14:14:26.720Z,6.30
2023-03-21T14:15:40.938Z,5.80
2023-03-21T14:16:46.636Z,13.00
2023-03-21T14:18:27.338Z,4.90
2023-03-21T14:19:38.828Z,6.50
2023-03-21T14:20:42.610Z,5.70
2023-03-21T14:21:53.879Z,5.60
2023-03-21T14:22:56.992Z,6.50
2023-03-21T14:24:03.041Z,10.20
2023-03-21T14:25:12.338Z,5.40
2023-03-21T14:26:15.961Z,6.90
2023-03-21T14:27:19.638Z,5.50
2023-03-21T14:28:32.907Z,8.30
2023-03-21T14:29:36.198Z,6.30
2023-03-21T14:30:41.624Z,5.60
2023-03-21T14:31:47.033Z,5.40
2023-03-21T14:32:50.326Z,5.40
2023-03-21T14:33:58.340Z,5.60
2023-03-21T14:35:01.958Z,5.60
2023-03-21T14:36:11.834Z,5.90
2023-03-21T14:37:47.767Z,7.90
2023-03-21T14:38:56.965Z,9.90
2023-03-21T14:40:02.312Z,6.10
2023-03-21T14:41:06.598Z,6.60
2023-03-21T14:42:15.088Z,5.80
2023-03-21T14:43:20.064Z,6.00
2023-03-21T14:44:38.085Z,5.70
2023-03-21T14:45:57.107Z,5.90
2023-03-21T14:47:18.270Z,6.40
2023-03-21T14:48:28.608Z,6.70
2023-03-21T14:49:34.270Z,6.70
2023-03-21T14:50:51.134Z,6.40
2023-03-21T14:51:56.988Z,8.10
2023-03-21T14:53:00.354Z,6.70
2023-03-21T14:54:03.148Z,6.30
2023-03-21T14:55:15.689Z,6.80
2023-03-21T14:56:25.191Z,7.50
2023-03-21T14:57:31.494Z,7.40
2023-03-21T14:58:39.075Z,7.00
2023-03-21T14:59:42.738Z,7.80
2023-03-21T15:00:50.281Z,8.60
2023-03-21T15:01:54.912Z,7.00
2023-03-21T15:02:59.732Z,6.10
2023-03-21T15:04:06.561Z,7.30
2023-03-21T15:05:17.195Z,7.10
2023-03-21T15:06:20.324Z,7.40
2023-03-21T15:07:34.885Z,6.20
2023-03-21T15:08:39.244Z,7.40